Alma Center, WI

11:02 AM CDT on July 25, 2014 (GMT -0500)
Black River Falls Area (KBCK) Elev 837 ft | 44.25 °N, 90.86 °W | Change Station

Current weather conditions updated 7 minutes ago

Overcast
Overcast
64 °F
Feels Like 64 °F
N
4
Wind Variable Wind from SSE

Today is forecast to be Cooler than yesterday. Partly cloudy with a stray thunderstorm.

Today
High -- | Low -- °F
--% Chance of Precip.
Yesterday
High -- | Low -- °F
Precip. -- in
5:43 AM 8:36 PM
Waning Crescent, 1% visible
Pressure 29.90 in
Visibility 10.0 miles
Clouds Scattered Clouds 600 ft
Mostly Cloudy 1700 ft
Overcast 6000 ft
Dew Point 64 °F
Humidity 99%
Rainfall 0.19 in
Snow Depth Not available.
UV 2 out of 12
Pollen 6.20 out of 12
Air Quality Not available.
Flu Activity Not available.
METAR KBCK 251555Z AUTO 16003KT 10SM SCT006 BKN017 OVC060 18/18 A2990 RMK AO2 P0004 T01800178

More Conditions Fewer Conditions

Pressure 29.90 in
Visibility 10.0 miles
Clouds Scattered Clouds 600 ft
Mostly Cloudy 1700 ft
Overcast 6000 ft
Dew Point 64 °F
Humidity 99%
Rainfall 0.19 in
Snow Depth Not available.
UV 2 out of 12
Pollen 6.20 out of 12
Air Quality Not available.
Flu Activity Not available.
METAR KBCK 251555Z AUTO 16003KT 10SM SCT006 BKN017 OVC060 18/18 A2990 RMK AO2 P0004 T01800178

More Conditions Fewer Conditions

10-Day Weather Forecast

Almanac

Astronomy

Jul. 25, 2014 Rise Set
Actual Time 5:43 AM CDT 8:36 PM CDT
Civil Twilight 5:08 AM CDT 9:10 PM CDT
Nautical Twilight 4:25 AM CDT 9:53 PM CDT
Astronomical Twilight 3:34 AM CDT 10:44 PM CDT
Moon 4:44 AM CDT 7:31 PM CDT
Length of Visible Light 16h 01m
Length of Day
14h 53m
Tomorrow will be 2m 7s shorter.
Waning Crescent, 1% of the Moon is Illuminated
Today
Waning Crescent
Jul 26
New
Aug 3
First Quarter
Aug 10
Full
Aug 17
Last Quarter

Today's Extremes

State Highs State Lows

Community

WunderPhotos

Upload Photos

1,737,361 photos uploaded!

Nearby

Snow Depth

Station Depth Elevation
No new snow has been reported.

Earthquake Activity

City Distance Mag. Time & Date
No recent earthquake activity has been reported nearby.
Minimum magnitude displayed is 2.5.

Coastal Water Temperatures

Place Temperature
No Stations Reporting

Nearby Weather Stations

Station Location Temp. Dew Point Humidity Wind Precip. Elev Updated Type
MesoWest HUMBIR , Humbird, WI 60 °F - - North  at  - 0.00 in / hr 1092 ft 9:50 AM CDT MADIS
Osseo, WI 64.9 °F 63 °F 93% SW  at  8.0 mph 0.00 in / hr 997 ft 10:58 AM CDT Normal

Show More Stations Show Fewer Stations